RYR89DJ LERS-EICK
Flight info
| Callsign | RYR89DJ |
|---|---|
| Flight time | 2h 9m |
| Altitude | 35000 |
| Route | POSSY M601 SURCO/N0433F370 M601 BLV/N0433F360 N75 DELOG DCT KOLEK DCT AMPOP DCT ARKIL DCT ERTER ERTER1G |
| Aircraft | B738/M-SDE2E3FGHIRWXY/LB1 |
Departure
| Time | 2026-04-25 13:31 |
|---|---|
| Airport | Reus Airport (LERS) |
Arrival
| Time | 2026-04-25 15:41 |
|---|---|
| Airport | Cork International Airport (EICK) |
| Time | Latitude | Longitude | Altitude | Speed | Heading |
|---|---|---|---|---|---|
| 2026-04-25 12:51 | 41.14685 | 1.15611 | 238 ft | 0 kts | 342° |
| 2026-04-25 13:19 | 41.14665 | 1.15619 | 238 ft | 4 kts | 341° |
| 2026-04-25 13:19 | 41.14649 | 1.15627 | 238 ft | 4 kts | 334° |
| 2026-04-25 13:20 | 41.14615 | 1.15640 | 238 ft | 4 kts | 355° |
| 2026-04-25 13:20 | 41.14596 | 1.15641 | 238 ft | 0 kts | 358° |
| 2026-04-25 13:24 | 41.14600 | 1.15648 | 238 ft | 2 kts | 48° |
| 2026-04-25 13:24 | 41.14619 | 1.15685 | 238 ft | 7 kts | 64° |
| 2026-04-25 13:24 | 41.14638 | 1.15763 | 238 ft | 11 kts | 70° |
| 2026-04-25 13:25 | 41.14672 | 1.15881 | 238 ft | 16 kts | 67° |
| 2026-04-25 13:25 | 41.14717 | 1.16035 | 239 ft | 20 kts | 69° |
| 2026-04-25 13:25 | 41.14771 | 1.16219 | 239 ft | 22 kts | 69° |
| 2026-04-25 13:25 | 41.14826 | 1.16407 | 240 ft | 21 kts | 69° |
| 2026-04-25 13:26 | 41.14879 | 1.16589 | 240 ft | 21 kts | 68° |
| 2026-04-25 13:26 | 41.14930 | 1.16765 | 240 ft | 20 kts | 69° |
| 2026-04-25 13:26 | 41.14980 | 1.16936 | 240 ft | 20 kts | 69° |
| 2026-04-25 13:26 | 41.15028 | 1.17102 | 240 ft | 19 kts | 69° |
| 2026-04-25 13:27 | 41.15076 | 1.17261 | 241 ft | 18 kts | 69° |
| 2026-04-25 13:27 | 41.15122 | 1.17416 | 241 ft | 18 kts | 68° |
| 2026-04-25 13:27 | 41.15165 | 1.17566 | 241 ft | 17 kts | 70° |
| 2026-04-25 13:27 | 41.15207 | 1.17711 | 242 ft | 16 kts | 68° |
| 2026-04-25 13:28 | 41.15248 | 1.17850 | 242 ft | 16 kts | 70° |
| 2026-04-25 13:28 | 41.15260 | 1.17896 | 242 ft | 17 kts | 70° |
| 2026-04-25 13:28 | 41.15333 | 1.18145 | 243 ft | 14 kts | 69° |
| 2026-04-25 13:28 | 41.15334 | 1.18227 | 243 ft | 8 kts | 134° |
| 2026-04-25 13:29 | 41.15286 | 1.18258 | 243 ft | 8 kts | 160° |
| 2026-04-25 13:29 | 41.15236 | 1.18282 | 244 ft | 7 kts | 163° |
| 2026-04-25 13:29 | 41.15213 | 1.18287 | 244 ft | 2 kts | 180° |
| 2026-04-25 13:30 | 41.15181 | 1.18220 | 244 ft | 5 kts | 247° |
| 2026-04-25 13:30 | 41.15169 | 1.18179 | 244 ft | 5 kts | 250° |
| 2026-04-25 13:30 | 41.15149 | 1.18115 | 244 ft | 14 kts | 246° |
| 2026-04-25 13:31 | 41.14760 | 1.16789 | 240 ft | 140 kts | 248° |
| 2026-04-25 13:31 | 41.14365 | 1.15396 | 419 ft | 172 kts | 251° |
| 2026-04-25 13:31 | 41.13953 | 1.13966 | 1085 ft | 167 kts | 237° |
| 2026-04-25 13:31 | 41.13140 | 1.12927 | 1703 ft | 165 kts | 200° |
| 2026-04-25 13:32 | 41.12063 | 1.12336 | 2279 ft | 185 kts | 211° |
| 2026-04-25 13:32 | 41.11195 | 1.10888 | 2618 ft | 219 kts | 249° |
| 2026-04-25 13:32 | 41.10701 | 1.08897 | 3095 ft | 233 kts | 251° |
| 2026-04-25 13:32 | 41.10136 | 1.06847 | 3689 ft | 246 kts | 246° |
| 2026-04-25 13:33 | 41.09404 | 1.04647 | 4056 ft | 271 kts | 244° |
| 2026-04-25 13:33 | 41.08585 | 1.02361 | 4896 ft | 278 kts | 243° |
| 2026-04-25 13:33 | 41.07724 | 1.00053 | 5822 ft | 280 kts | 242° |
| 2026-04-25 13:33 | 41.07427 | 0.99273 | 6133 ft | 282 kts | 242° |
| 2026-04-25 13:34 | 41.05928 | 0.95387 | 7591 ft | 288 kts | 242° |
| 2026-04-25 13:34 | 41.05005 | 0.93014 | 8493 ft | 291 kts | 242° |
| 2026-04-25 13:34 | 41.04130 | 0.90581 | 9324 ft | 297 kts | 252° |
| 2026-04-25 13:34 | 41.04035 | 0.87884 | 10149 ft | 296 kts | 286° |
| 2026-04-25 13:35 | 41.04955 | 0.85430 | 10704 ft | 307 kts | 311° |
| 2026-04-25 13:35 | 41.06694 | 0.83653 | 10883 ft | 329 kts | 337° |
| 2026-04-25 13:35 | 41.08900 | 0.82680 | 11360 ft | 340 kts | 345° |
| 2026-04-25 13:35 | 41.11195 | 0.81813 | 12086 ft | 344 kts | 346° |
| 2026-04-25 13:36 | 41.13513 | 0.80957 | 12890 ft | 347 kts | 346° |
| 2026-04-25 13:36 | 41.15840 | 0.80095 | 13783 ft | 348 kts | 346° |
| 2026-04-25 13:36 | 41.18191 | 0.79214 | 14424 ft | 355 kts | 345° |
| 2026-04-25 13:36 | 41.20585 | 0.78307 | 15036 ft | 361 kts | 345° |
| 2026-04-25 13:37 | 41.23013 | 0.77376 | 15732 ft | 365 kts | 345° |
| 2026-04-25 13:37 | 41.25464 | 0.76430 | 16390 ft | 370 kts | 345° |
| 2026-04-25 13:37 | 41.27960 | 0.75464 | 16948 ft | 377 kts | 345° |
| 2026-04-25 13:37 | 41.30494 | 0.74481 | 17580 ft | 382 kts | 345° |
| 2026-04-25 13:38 | 41.33068 | 0.73480 | 18217 ft | 388 kts | 345° |
| 2026-04-25 13:38 | 41.35673 | 0.72467 | 18776 ft | 392 kts | 344° |
| 2026-04-25 13:38 | 41.38290 | 0.71447 | 19466 ft | 392 kts | 344° |
| 2026-04-25 13:38 | 41.40913 | 0.70424 | 20100 ft | 394 kts | 344° |
| 2026-04-25 13:39 | 41.43558 | 0.69392 | 20634 ft | 398 kts | 344° |
| 2026-04-25 13:39 | 41.46229 | 0.68349 | 21191 ft | 402 kts | 344° |
| 2026-04-25 13:39 | 41.48915 | 0.67300 | 21824 ft | 403 kts | 344° |
| 2026-04-25 13:39 | 41.51612 | 0.66245 | 22405 ft | 405 kts | 344° |
| 2026-04-25 13:40 | 41.54326 | 0.65177 | 22938 ft | 408 kts | 342° |
| 2026-04-25 13:40 | 41.56910 | 0.63590 | 23427 ft | 412 kts | 325° |
| 2026-04-25 13:40 | 41.59198 | 0.61291 | 23998 ft | 412 kts | 322° |
| 2026-04-25 13:40 | 41.61496 | 0.58979 | 24448 ft | 415 kts | 323° |
| 2026-04-25 13:41 | 41.63827 | 0.56678 | 24852 ft | 418 kts | 323° |
| 2026-04-25 13:41 | 41.66187 | 0.54379 | 25261 ft | 421 kts | 323° |
| 2026-04-25 13:41 | 41.68571 | 0.52075 | 25680 ft | 424 kts | 323° |
| 2026-04-25 13:41 | 41.70972 | 0.49765 | 26108 ft | 426 kts | 323° |
| 2026-04-25 13:42 | 41.73387 | 0.47441 | 26504 ft | 429 kts | 323° |
| 2026-04-25 13:42 | 41.75816 | 0.45104 | 26908 ft | 431 kts | 324° |
| 2026-04-25 13:42 | 41.78257 | 0.42753 | 27302 ft | 434 kts | 323° |
| 2026-04-25 13:42 | 41.80711 | 0.40387 | 27713 ft | 436 kts | 323° |
| 2026-04-25 13:43 | 41.83146 | 0.38035 | 28071 ft | 438 kts | 323° |
| 2026-04-25 13:43 | 41.85625 | 0.35638 | 28420 ft | 441 kts | 323° |
| 2026-04-25 13:43 | 41.88121 | 0.33222 | 28776 ft | 444 kts | 323° |
| 2026-04-25 13:43 | 41.90630 | 0.30790 | 29131 ft | 446 kts | 323° |
| 2026-04-25 13:44 | 41.93151 | 0.28346 | 29470 ft | 448 kts | 323° |
| 2026-04-25 13:44 | 41.95681 | 0.25889 | 29812 ft | 450 kts | 323° |
| 2026-04-25 13:44 | 41.98228 | 0.23414 | 30129 ft | 453 kts | 323° |
| 2026-04-25 13:44 | 42.00788 | 0.20925 | 30414 ft | 455 kts | 323° |
| 2026-04-25 13:45 | 42.03351 | 0.18430 | 30729 ft | 455 kts | 323° |
| 2026-04-25 13:45 | 42.05821 | 0.15778 | 31078 ft | 454 kts | 313° |
| 2026-04-25 13:45 | 42.07584 | 0.12313 | 31435 ft | 449 kts | 293° |
| 2026-04-25 13:45 | 42.08821 | 0.08478 | 31942 ft | 445 kts | 294° |
| 2026-04-25 13:46 | 42.10164 | 0.04721 | 32285 ft | 445 kts | 295° |
| 2026-04-25 13:46 | 42.11561 | 0.00993 | 32550 ft | 447 kts | 296° |
| 2026-04-25 13:46 | 42.12968 | -0.02725 | 32882 ft | 447 kts | 295° |
| 2026-04-25 13:46 | 42.14374 | -0.06459 | 33282 ft | 445 kts | 295° |
| 2026-04-25 13:47 | 42.15760 | -0.10169 | 33708 ft | 442 kts | 295° |
| 2026-04-25 13:47 | 42.16669 | -0.12620 | 33965 ft | 441 kts | 295° |
| 2026-04-25 13:47 | 42.18498 | -0.17568 | 34373 ft | 440 kts | 295° |
| 2026-04-25 13:47 | 42.19401 | -0.20015 | 34544 ft | 440 kts | 295° |
| 2026-04-25 13:48 | 42.20766 | -0.23716 | 34831 ft | 440 kts | 295° |
| 2026-04-25 13:48 | 42.22125 | -0.27407 | 35142 ft | 438 kts | 295° |
| 2026-04-25 13:48 | 42.23477 | -0.31085 | 35442 ft | 437 kts | 295° |
| 2026-04-25 13:48 | 42.24828 | -0.34764 | 35685 ft | 437 kts | 295° |
| 2026-04-25 13:49 | 42.26178 | -0.38444 | 35951 ft | 437 kts | 295° |
| 2026-04-25 13:49 | 42.27521 | -0.42111 | 36243 ft | 436 kts | 295° |
| 2026-04-25 13:49 | 42.28861 | -0.45775 | 36506 ft | 435 kts | 295° |
| 2026-04-25 13:49 | 42.30201 | -0.49442 | 36736 ft | 435 kts | 295° |
| 2026-04-25 13:50 | 42.31538 | -0.53105 | 36984 ft | 434 kts | 295° |
| 2026-04-25 13:50 | 42.32871 | -0.56761 | 37265 ft | 433 kts | 295° |
| 2026-04-25 13:50 | 42.34200 | -0.60413 | 37522 ft | 433 kts | 295° |
| 2026-04-25 13:50 | 42.35528 | -0.64063 | 37741 ft | 432 kts | 295° |
| 2026-04-25 13:51 | 42.36852 | -0.67709 | 37969 ft | 432 kts | 295° |
| 2026-04-25 13:51 | 42.38175 | -0.71359 | 38106 ft | 433 kts | 295° |
| 2026-04-25 13:51 | 42.39508 | -0.75039 | 38090 ft | 435 kts | 295° |
| 2026-04-25 13:52 | 42.42162 | -0.82374 | 38093 ft | 432 kts | 294° |
| 2026-04-25 13:52 | 42.44785 | -0.89653 | 38099 ft | 428 kts | 294° |
| 2026-04-25 13:53 | 42.47365 | -0.96833 | 38091 ft | 426 kts | 294° |
| 2026-04-25 13:53 | 42.49946 | -1.04034 | 38097 ft | 424 kts | 294° |
| 2026-04-25 13:54 | 42.52520 | -1.11228 | 38106 ft | 425 kts | 294° |
| 2026-04-25 13:54 | 42.55098 | -1.18452 | 38114 ft | 426 kts | 294° |
| 2026-04-25 13:55 | 42.57683 | -1.25713 | 38116 ft | 428 kts | 294° |
| 2026-04-25 13:55 | 42.60277 | -1.33018 | 38116 ft | 431 kts | 294° |
| 2026-04-25 13:56 | 42.62877 | -1.40359 | 38126 ft | 432 kts | 294° |
| 2026-04-25 13:56 | 42.65483 | -1.47730 | 38131 ft | 434 kts | 294° |
| 2026-04-25 13:57 | 42.68093 | -1.55130 | 38129 ft | 434 kts | 294° |
| 2026-04-25 13:57 | 42.70694 | -1.62536 | 38126 ft | 434 kts | 294° |
| 2026-04-25 13:58 | 42.73291 | -1.69935 | 38129 ft | 433 kts | 295° |
| 2026-04-25 13:58 | 42.76401 | -1.76960 | 38133 ft | 434 kts | 302° |
| 2026-04-25 13:59 | 42.79745 | -1.83782 | 38129 ft | 433 kts | 301° |
| 2026-04-25 13:59 | 42.83006 | -1.90665 | 38128 ft | 432 kts | 301° |
| 2026-04-25 14:00 | 42.85681 | -1.96394 | 38157 ft | 431 kts | 301° |
| 2026-04-25 14:00 | 42.89442 | -2.04444 | 38151 ft | 430 kts | 301° |
| 2026-04-25 14:01 | 42.92649 | -2.11317 | 38153 ft | 429 kts | 301° |
| 2026-04-25 14:01 | 42.95850 | -2.18197 | 38147 ft | 429 kts | 301° |
| 2026-04-25 14:02 | 42.99024 | -2.25032 | 38144 ft | 429 kts | 301° |
| 2026-04-25 14:02 | 43.02240 | -2.31886 | 38159 ft | 429 kts | 301° |
| 2026-04-25 14:03 | 43.05464 | -2.38748 | 38159 ft | 429 kts | 301° |
| 2026-04-25 14:03 | 43.08684 | -2.45623 | 38164 ft | 429 kts | 301° |
| 2026-04-25 14:04 | 43.11899 | -2.52514 | 38161 ft | 430 kts | 301° |
| 2026-04-25 14:04 | 43.15111 | -2.59417 | 38163 ft | 430 kts | 301° |
| 2026-04-25 14:05 | 43.18321 | -2.66329 | 38170 ft | 430 kts | 301° |
| 2026-04-25 14:05 | 43.21526 | -2.73248 | 38175 ft | 430 kts | 301° |
| 2026-04-25 14:06 | 43.24725 | -2.80170 | 38172 ft | 430 kts | 301° |
| 2026-04-25 14:06 | 43.27923 | -2.87104 | 38180 ft | 430 kts | 301° |
| 2026-04-25 14:07 | 43.31522 | -2.93639 | 38189 ft | 431 kts | 315° |
| 2026-04-25 14:07 | 43.36271 | -2.98703 | 38190 ft | 433 kts | 322° |
| 2026-04-25 14:08 | 43.41118 | -3.03620 | 38196 ft | 433 kts | 322° |
| 2026-04-25 14:08 | 43.45903 | -3.08552 | 38187 ft | 432 kts | 321° |
| 2026-04-25 14:09 | 43.50698 | -3.13535 | 38178 ft | 431 kts | 321° |
| 2026-04-25 14:09 | 43.55480 | -3.18518 | 38188 ft | 430 kts | 321° |
| 2026-04-25 14:10 | 43.60281 | -3.23530 | 38197 ft | 430 kts | 321° |
| 2026-04-25 14:10 | 43.65007 | -3.28471 | 38182 ft | 429 kts | 321° |
| 2026-04-25 14:11 | 43.69762 | -3.33433 | 38187 ft | 428 kts | 322° |
| 2026-04-25 14:11 | 43.74549 | -3.38313 | 38187 ft | 427 kts | 322° |
| 2026-04-25 14:12 | 43.79327 | -3.43192 | 38187 ft | 426 kts | 322° |
| 2026-04-25 14:12 | 43.84091 | -3.48081 | 38189 ft | 426 kts | 322° |
| 2026-04-25 14:13 | 43.88848 | -3.52973 | 38187 ft | 426 kts | 322° |
| 2026-04-25 14:13 | 43.93598 | -3.57868 | 38191 ft | 426 kts | 322° |
| 2026-04-25 14:14 | 43.98348 | -3.62773 | 38201 ft | 426 kts | 322° |
| 2026-04-25 14:14 | 44.03100 | -3.67690 | 38189 ft | 426 kts | 322° |
| 2026-04-25 14:15 | 44.07852 | -3.72617 | 38191 ft | 426 kts | 322° |
| 2026-04-25 14:15 | 44.12604 | -3.77554 | 38188 ft | 426 kts | 322° |
| 2026-04-25 14:16 | 44.17356 | -3.82502 | 38199 ft | 427 kts | 322° |
| 2026-04-25 14:16 | 44.22105 | -3.87457 | 38189 ft | 427 kts | 322° |
| 2026-04-25 14:17 | 44.26854 | -3.92423 | 38188 ft | 426 kts | 322° |
| 2026-04-25 14:17 | 44.31600 | -3.97388 | 38186 ft | 426 kts | 322° |
| 2026-04-25 14:17 | 44.34107 | -3.99600 | 38170 ft | 428 kts | 333° |
| 2026-04-25 14:18 | 44.36836 | -4.01244 | 38209 ft | 427 kts | 336° |
| 2026-04-25 14:18 | 44.42336 | -4.04431 | 38190 ft | 427 kts | 335° |
| 2026-04-25 14:19 | 44.47815 | -4.07663 | 38183 ft | 427 kts | 335° |
| 2026-04-25 14:19 | 44.53284 | -4.10929 | 38184 ft | 427 kts | 335° |
| 2026-04-25 14:20 | 44.58746 | -4.14208 | 38187 ft | 427 kts | 335° |
| 2026-04-25 14:20 | 44.64209 | -4.17496 | 38189 ft | 427 kts | 335° |
| 2026-04-25 14:21 | 44.69668 | -4.20787 | 38185 ft | 427 kts | 335° |
| 2026-04-25 14:21 | 44.75131 | -4.24087 | 38186 ft | 427 kts | 335° |
| 2026-04-25 14:22 | 44.80595 | -4.27395 | 38188 ft | 428 kts | 335° |
| 2026-04-25 14:22 | 44.86063 | -4.30712 | 38188 ft | 428 kts | 335° |
| 2026-04-25 14:23 | 44.91530 | -4.34034 | 38198 ft | 428 kts | 335° |
| 2026-04-25 14:23 | 44.97001 | -4.37366 | 38187 ft | 428 kts | 335° |
| 2026-04-25 14:24 | 45.02472 | -4.40706 | 38186 ft | 429 kts | 335° |
| 2026-04-25 14:24 | 45.07948 | -4.44055 | 38187 ft | 429 kts | 335° |
| 2026-04-25 14:25 | 45.13422 | -4.47410 | 38194 ft | 429 kts | 335° |
| 2026-04-25 14:25 | 45.18899 | -4.50774 | 38191 ft | 429 kts | 335° |
| 2026-04-25 14:26 | 45.24376 | -4.54145 | 38189 ft | 429 kts | 335° |
| 2026-04-25 14:26 | 45.29850 | -4.57522 | 38198 ft | 429 kts | 334° |
| 2026-04-25 14:27 | 45.35325 | -4.60906 | 38191 ft | 429 kts | 334° |
| 2026-04-25 14:27 | 45.40802 | -4.64298 | 38192 ft | 429 kts | 334° |
| 2026-04-25 14:28 | 45.46273 | -4.67694 | 38187 ft | 429 kts | 334° |
| 2026-04-25 14:28 | 45.51739 | -4.71094 | 38198 ft | 429 kts | 334° |
| 2026-04-25 14:29 | 45.57206 | -4.74502 | 38188 ft | 428 kts | 334° |
| 2026-04-25 14:29 | 45.62663 | -4.77911 | 38189 ft | 428 kts | 334° |
| 2026-04-25 14:30 | 45.68081 | -4.81303 | 38197 ft | 428 kts | 334° |
| 2026-04-25 14:30 | 45.76288 | -4.86454 | 38194 ft | 427 kts | 334° |
| 2026-04-25 14:31 | 45.81690 | -4.89854 | 38195 ft | 427 kts | 334° |
| 2026-04-25 14:31 | 45.87123 | -4.93281 | 38204 ft | 426 kts | 334° |
| 2026-04-25 14:32 | 45.92551 | -4.96712 | 38198 ft | 426 kts | 334° |
| 2026-04-25 14:32 | 45.97976 | -5.00148 | 38195 ft | 426 kts | 334° |
| 2026-04-25 14:33 | 46.03393 | -5.03587 | 38195 ft | 425 kts | 334° |
| 2026-04-25 14:33 | 46.08806 | -5.07031 | 38202 ft | 425 kts | 334° |
| 2026-04-25 14:34 | 46.14217 | -5.10480 | 38199 ft | 425 kts | 334° |
| 2026-04-25 14:34 | 46.19617 | -5.13931 | 38198 ft | 425 kts | 334° |
| 2026-04-25 14:35 | 46.24104 | -5.16803 | 38196 ft | 424 kts | 334° |
| 2026-04-25 14:35 | 46.29497 | -5.20263 | 38202 ft | 424 kts | 334° |
| 2026-04-25 14:36 | 46.34877 | -5.23721 | 38201 ft | 423 kts | 334° |
| 2026-04-25 14:36 | 46.40253 | -5.27185 | 38201 ft | 422 kts | 334° |
| 2026-04-25 14:37 | 46.45611 | -5.30644 | 38198 ft | 421 kts | 334° |
| 2026-04-25 14:37 | 46.50959 | -5.34105 | 38202 ft | 420 kts | 334° |
| 2026-04-25 14:38 | 46.56295 | -5.37565 | 38203 ft | 419 kts | 334° |
| 2026-04-25 14:38 | 46.61668 | -5.40859 | 38188 ft | 420 kts | 341° |
| 2026-04-25 14:39 | 46.67431 | -5.42386 | 38207 ft | 422 kts | 349° |
| 2026-04-25 14:39 | 46.73220 | -5.43711 | 38208 ft | 421 kts | 348° |
| 2026-04-25 14:40 | 46.79006 | -5.45084 | 38210 ft | 421 kts | 348° |
| 2026-04-25 14:40 | 46.84787 | -5.46480 | 38209 ft | 421 kts | 348° |
| 2026-04-25 14:41 | 46.90576 | -5.47887 | 38209 ft | 422 kts | 348° |
| 2026-04-25 14:41 | 46.96373 | -5.49299 | 38201 ft | 422 kts | 348° |
| 2026-04-25 14:42 | 47.01194 | -5.50476 | 38202 ft | 423 kts | 348° |
| 2026-04-25 14:42 | 47.07943 | -5.52125 | 38211 ft | 423 kts | 348° |
| 2026-04-25 14:43 | 47.13753 | -5.53549 | 38200 ft | 423 kts | 348° |
| 2026-04-25 14:43 | 47.19564 | -5.54976 | 38203 ft | 423 kts | 348° |
| 2026-04-25 14:44 | 47.25377 | -5.56406 | 38211 ft | 423 kts | 348° |
| 2026-04-25 14:44 | 47.31183 | -5.57838 | 38203 ft | 423 kts | 347° |
| 2026-04-25 14:45 | 47.36988 | -5.59274 | 38206 ft | 423 kts | 347° |
| 2026-04-25 14:45 | 47.42790 | -5.60711 | 38204 ft | 423 kts | 347° |
| 2026-04-25 14:46 | 47.48591 | -5.62151 | 38203 ft | 422 kts | 347° |
| 2026-04-25 14:46 | 47.54381 | -5.63593 | 38206 ft | 422 kts | 347° |
| 2026-04-25 14:47 | 47.59197 | -5.64794 | 38205 ft | 422 kts | 347° |
| 2026-04-25 14:47 | 47.65960 | -5.66484 | 38204 ft | 422 kts | 347° |
| 2026-04-25 14:48 | 47.71752 | -5.67935 | 38205 ft | 422 kts | 347° |
| 2026-04-25 14:48 | 47.77540 | -5.69389 | 38208 ft | 422 kts | 347° |
| 2026-04-25 14:49 | 47.83296 | -5.70837 | 38210 ft | 422 kts | 347° |
| 2026-04-25 14:49 | 47.89088 | -5.72298 | 38211 ft | 422 kts | 347° |
| 2026-04-25 14:50 | 47.94888 | -5.73765 | 38213 ft | 423 kts | 347° |
| 2026-04-25 14:50 | 48.00691 | -5.75235 | 38209 ft | 423 kts | 347° |
| 2026-04-25 14:51 | 48.06496 | -5.76710 | 38211 ft | 423 kts | 347° |
| 2026-04-25 14:51 | 48.12313 | -5.78191 | 38206 ft | 424 kts | 347° |
| 2026-04-25 14:52 | 48.18135 | -5.79676 | 38210 ft | 425 kts | 347° |
| 2026-04-25 14:52 | 48.23020 | -5.80925 | 38207 ft | 425 kts | 347° |
| 2026-04-25 14:53 | 48.29802 | -5.82664 | 38215 ft | 426 kts | 347° |
| 2026-04-25 14:53 | 48.35645 | -5.84165 | 38203 ft | 426 kts | 347° |
| 2026-04-25 14:54 | 48.41496 | -5.85671 | 38208 ft | 427 kts | 347° |
| 2026-04-25 14:54 | 48.47351 | -5.87183 | 38209 ft | 427 kts | 347° |
| 2026-04-25 14:55 | 48.53203 | -5.88697 | 38212 ft | 427 kts | 347° |
| 2026-04-25 14:55 | 48.59068 | -5.90218 | 38213 ft | 427 kts | 347° |
| 2026-04-25 14:56 | 48.64923 | -5.91740 | 38209 ft | 427 kts | 347° |
| 2026-04-25 14:56 | 48.70811 | -5.93274 | 38213 ft | 427 kts | 347° |
| 2026-04-25 14:57 | 48.76645 | -5.94798 | 38211 ft | 427 kts | 347° |
| 2026-04-25 14:57 | 48.82463 | -5.96321 | 38211 ft | 427 kts | 347° |
| 2026-04-25 14:58 | 48.88317 | -5.97857 | 38211 ft | 427 kts | 347° |
| 2026-04-25 14:58 | 48.94172 | -5.99397 | 38226 ft | 427 kts | 346° |
| 2026-04-25 14:59 | 49.00031 | -6.00942 | 38212 ft | 427 kts | 346° |
| 2026-04-25 14:59 | 49.05886 | -6.02490 | 38210 ft | 427 kts | 346° |
| 2026-04-25 15:00 | 49.11682 | -6.04022 | 38206 ft | 416 kts | 346° |
| 2026-04-25 15:00 | 49.17440 | -6.05554 | 38229 ft | 424 kts | 346° |
| 2026-04-25 15:01 | 49.23335 | -6.07128 | 38215 ft | 430 kts | 346° |
| 2026-04-25 15:01 | 49.29208 | -6.08694 | 38210 ft | 432 kts | 346° |
| 2026-04-25 15:02 | 49.35135 | -6.10278 | 38208 ft | 433 kts | 346° |
| 2026-04-25 15:02 | 49.41061 | -6.11867 | 38213 ft | 432 kts | 346° |
| 2026-04-25 15:03 | 49.46979 | -6.13457 | 38209 ft | 431 kts | 346° |
| 2026-04-25 15:03 | 49.52638 | -6.15990 | 38220 ft | 418 kts | 327° |
| 2026-04-25 15:04 | 49.57126 | -6.21428 | 38224 ft | 408 kts | 310° |
| 2026-04-25 15:04 | 49.61028 | -6.27763 | 38221 ft | 407 kts | 311° |
| 2026-04-25 15:05 | 49.64955 | -6.34052 | 38207 ft | 406 kts | 311° |
| 2026-04-25 15:06 | 49.70841 | -6.43455 | 38211 ft | 406 kts | 311° |
| 2026-04-25 15:06 | 49.74765 | -6.49736 | 38214 ft | 407 kts | 311° |
| 2026-04-25 15:07 | 49.78695 | -6.56043 | 38219 ft | 407 kts | 311° |
| 2026-04-25 15:07 | 49.82630 | -6.62373 | 38214 ft | 409 kts | 310° |
| 2026-04-25 15:08 | 49.86574 | -6.68735 | 38212 ft | 410 kts | 310° |
| 2026-04-25 15:08 | 49.90527 | -6.75127 | 38215 ft | 411 kts | 310° |
| 2026-04-25 15:09 | 49.94487 | -6.81546 | 38215 ft | 412 kts | 310° |
| 2026-04-25 15:09 | 50.00433 | -6.91215 | 38219 ft | 413 kts | 310° |
| 2026-04-25 15:10 | 50.04404 | -6.97693 | 38211 ft | 414 kts | 310° |
| 2026-04-25 15:11 | 50.10329 | -7.07391 | 38210 ft | 414 kts | 310° |
| 2026-04-25 15:11 | 50.12313 | -7.10647 | 38007 ft | 416 kts | 310° |
| 2026-04-25 15:11 | 50.14296 | -7.13903 | 37744 ft | 409 kts | 310° |
| 2026-04-25 15:12 | 50.18154 | -7.20245 | 37020 ft | 397 kts | 309° |
| 2026-04-25 15:12 | 50.20042 | -7.23357 | 36618 ft | 393 kts | 309° |
| 2026-04-25 15:12 | 50.21908 | -7.26438 | 36249 ft | 388 kts | 309° |
| 2026-04-25 15:12 | 50.22532 | -7.27470 | 36127 ft | 387 kts | 309° |
| 2026-04-25 15:13 | 50.25580 | -7.32513 | 35498 ft | 381 kts | 308° |
| 2026-04-25 15:13 | 50.29184 | -7.38490 | 34776 ft | 374 kts | 308° |
| 2026-04-25 15:13 | 50.30963 | -7.41446 | 34409 ft | 372 kts | 307° |
| 2026-04-25 15:14 | 50.32729 | -7.44382 | 34034 ft | 370 kts | 307° |
| 2026-04-25 15:14 | 50.34484 | -7.47307 | 33628 ft | 367 kts | 307° |
| 2026-04-25 15:14 | 50.36224 | -7.50208 | 33269 ft | 364 kts | 307° |
| 2026-04-25 15:14 | 50.37949 | -7.53086 | 32914 ft | 361 kts | 307° |
| 2026-04-25 15:15 | 50.39663 | -7.55951 | 32561 ft | 359 kts | 308° |
| 2026-04-25 15:15 | 50.41362 | -7.58793 | 32220 ft | 356 kts | 308° |
| 2026-04-25 15:15 | 50.43051 | -7.61622 | 31869 ft | 354 kts | 308° |
| 2026-04-25 15:15 | 50.44728 | -7.64433 | 31528 ft | 352 kts | 308° |
| 2026-04-25 15:16 | 50.46399 | -7.67241 | 31205 ft | 354 kts | 308° |
| 2026-04-25 15:16 | 50.48107 | -7.70118 | 30887 ft | 366 kts | 308° |
| 2026-04-25 15:16 | 50.51630 | -7.76052 | 30129 ft | 371 kts | 308° |
| 2026-04-25 15:17 | 50.55127 | -7.81943 | 29340 ft | 366 kts | 308° |
| 2026-04-25 15:17 | 50.56859 | -7.84868 | 28954 ft | 364 kts | 308° |
| 2026-04-25 15:17 | 50.58575 | -7.87771 | 28599 ft | 361 kts | 308° |
| 2026-04-25 15:18 | 50.60281 | -7.90660 | 28216 ft | 360 kts | 308° |
| 2026-04-25 15:18 | 50.63648 | -7.96371 | 27495 ft | 358 kts | 309° |
| 2026-04-25 15:18 | 50.65568 | -7.98890 | 27086 ft | 365 kts | 327° |
| 2026-04-25 15:19 | 50.67977 | -8.00229 | 26754 ft | 372 kts | 348° |
| 2026-04-25 15:19 | 50.68843 | -8.00382 | 26642 ft | 373 kts | 353° |
| 2026-04-25 15:19 | 50.73151 | -8.00604 | 26051 ft | 373 kts | 355° |
| 2026-04-25 15:19 | 50.75741 | -8.00733 | 25696 ft | 372 kts | 355° |
| 2026-04-25 15:20 | 50.78331 | -8.00872 | 25343 ft | 372 kts | 355° |
| 2026-04-25 15:20 | 50.80918 | -8.01021 | 24985 ft | 372 kts | 355° |
| 2026-04-25 15:20 | 50.83507 | -8.01178 | 24628 ft | 372 kts | 355° |
| 2026-04-25 15:20 | 50.86094 | -8.01342 | 24273 ft | 372 kts | 355° |
| 2026-04-25 15:21 | 50.88683 | -8.01509 | 23898 ft | 373 kts | 355° |
| 2026-04-25 15:21 | 50.91275 | -8.01678 | 23497 ft | 372 kts | 355° |
| 2026-04-25 15:21 | 50.93863 | -8.01848 | 23098 ft | 372 kts | 355° |
| 2026-04-25 15:21 | 50.96442 | -8.02018 | 22720 ft | 371 kts | 355° |
| 2026-04-25 15:22 | 50.99012 | -8.02188 | 22350 ft | 369 kts | 355° |
| 2026-04-25 15:22 | 51.01575 | -8.02358 | 21989 ft | 368 kts | 355° |
| 2026-04-25 15:22 | 51.04130 | -8.02527 | 21634 ft | 367 kts | 355° |
| 2026-04-25 15:22 | 51.06683 | -8.02697 | 21282 ft | 366 kts | 355° |
| 2026-04-25 15:23 | 51.09224 | -8.02866 | 20916 ft | 365 kts | 355° |
| 2026-04-25 15:23 | 51.11760 | -8.03034 | 20558 ft | 365 kts | 355° |
| 2026-04-25 15:23 | 51.14294 | -8.03203 | 20206 ft | 364 kts | 355° |
| 2026-04-25 15:23 | 51.15967 | -8.03315 | 19969 ft | 364 kts | 355° |
| 2026-04-25 15:24 | 51.18496 | -8.03484 | 19612 ft | 364 kts | 355° |
| 2026-04-25 15:24 | 51.21025 | -8.03653 | 19256 ft | 363 kts | 355° |
| 2026-04-25 15:24 | 51.23552 | -8.03822 | 18890 ft | 364 kts | 355° |
| 2026-04-25 15:24 | 51.25227 | -8.03934 | 18645 ft | 364 kts | 355° |
| 2026-04-25 15:25 | 51.28613 | -8.04161 | 18122 ft | 364 kts | 355° |
| 2026-04-25 15:25 | 51.31139 | -8.04331 | 17746 ft | 363 kts | 355° |
| 2026-04-25 15:25 | 51.33660 | -8.04500 | 17379 ft | 362 kts | 355° |
| 2026-04-25 15:25 | 51.36173 | -8.04669 | 17019 ft | 361 kts | 355° |
| 2026-04-25 15:26 | 51.38674 | -8.04837 | 16661 ft | 359 kts | 355° |
| 2026-04-25 15:26 | 51.41164 | -8.05005 | 16305 ft | 358 kts | 355° |
| 2026-04-25 15:26 | 51.43650 | -8.05172 | 15956 ft | 357 kts | 355° |
| 2026-04-25 15:26 | 51.46097 | -8.05337 | 15589 ft | 347 kts | 355° |
| 2026-04-25 15:27 | 51.48481 | -8.05497 | 15250 ft | 338 kts | 355° |
| 2026-04-25 15:27 | 51.50806 | -8.05654 | 14921 ft | 330 kts | 355° |
| 2026-04-25 15:27 | 51.55298 | -8.05961 | 14293 ft | 317 kts | 354° |
| 2026-04-25 15:28 | 51.57442 | -8.06654 | 13961 ft | 314 kts | 334° |
| 2026-04-25 15:28 | 51.59413 | -8.08129 | 13647 ft | 313 kts | 332° |
| 2026-04-25 15:28 | 51.61395 | -8.09614 | 13293 ft | 315 kts | 333° |
| 2026-04-25 15:28 | 51.63393 | -8.11078 | 12955 ft | 316 kts | 333° |
| 2026-04-25 15:29 | 51.65402 | -8.12531 | 12625 ft | 317 kts | 333° |
| 2026-04-25 15:29 | 51.67417 | -8.13978 | 12297 ft | 318 kts | 333° |
| 2026-04-25 15:29 | 51.69432 | -8.15421 | 11956 ft | 314 kts | 333° |
| 2026-04-25 15:29 | 51.71412 | -8.16835 | 11625 ft | 308 kts | 333° |
| 2026-04-25 15:30 | 51.73355 | -8.18223 | 11309 ft | 305 kts | 333° |
| 2026-04-25 15:30 | 51.75298 | -8.19614 | 11016 ft | 306 kts | 334° |
| 2026-04-25 15:30 | 51.77252 | -8.21014 | 10709 ft | 308 kts | 334° |
| 2026-04-25 15:30 | 51.79211 | -8.22416 | 10388 ft | 307 kts | 334° |
| 2026-04-25 15:31 | 51.81133 | -8.23793 | 10238 ft | 298 kts | 334° |
| 2026-04-25 15:31 | 51.83031 | -8.25155 | 9919 ft | 299 kts | 334° |
| 2026-04-25 15:31 | 51.84913 | -8.26506 | 9595 ft | 293 kts | 334° |
| 2026-04-25 15:31 | 51.86763 | -8.27837 | 9299 ft | 291 kts | 334° |
| 2026-04-25 15:32 | 51.88616 | -8.29171 | 9007 ft | 292 kts | 334° |
| 2026-04-25 15:32 | 51.90456 | -8.30497 | 8704 ft | 294 kts | 334° |
| 2026-04-25 15:32 | 51.92359 | -8.31870 | 8403 ft | 297 kts | 334° |
| 2026-04-25 15:33 | 51.96124 | -8.34589 | 7770 ft | 298 kts | 334° |
| 2026-04-25 15:33 | 51.97997 | -8.35942 | 7462 ft | 292 kts | 334° |
| 2026-04-25 15:33 | 51.99830 | -8.37268 | 7167 ft | 285 kts | 334° |
| 2026-04-25 15:33 | 52.01624 | -8.38567 | 6887 ft | 279 kts | 334° |
| 2026-04-25 15:34 | 52.03380 | -8.39839 | 6613 ft | 274 kts | 334° |
| 2026-04-25 15:34 | 52.05089 | -8.41140 | 6317 ft | 268 kts | 327° |
| 2026-04-25 15:34 | 52.06335 | -8.43233 | 6164 ft | 253 kts | 294° |
| 2026-04-25 15:34 | 52.06693 | -8.45044 | 5971 ft | 249 kts | 276° |
| 2026-04-25 15:35 | 52.05959 | -8.51264 | 5362 ft | 243 kts | 248° |
| 2026-04-25 15:35 | 52.05387 | -8.53748 | 5294 ft | 228 kts | 248° |
| 2026-04-25 15:35 | 52.04849 | -8.56099 | 5188 ft | 216 kts | 249° |
| 2026-04-25 15:36 | 52.03329 | -8.59763 | 4945 ft | 189 kts | 196° |
| 2026-04-25 15:36 | 52.02092 | -8.59624 | 4850 ft | 177 kts | 161° |
| 2026-04-25 15:36 | 52.00905 | -8.58978 | 4432 ft | 183 kts | 163° |
| 2026-04-25 15:37 | 51.99690 | -8.58321 | 4064 ft | 186 kts | 161° |
| 2026-04-25 15:37 | 51.98474 | -8.57615 | 3692 ft | 186 kts | 161° |
| 2026-04-25 15:37 | 51.97256 | -8.56895 | 3302 ft | 187 kts | 161° |
| 2026-04-25 15:37 | 51.96035 | -8.56170 | 2918 ft | 187 kts | 161° |
| 2026-04-25 15:38 | 51.94813 | -8.55445 | 2551 ft | 186 kts | 161° |
| 2026-04-25 15:38 | 51.93610 | -8.54732 | 2297 ft | 183 kts | 161° |
| 2026-04-25 15:38 | 51.92445 | -8.54041 | 2065 ft | 174 kts | 162° |
| 2026-04-25 15:38 | 51.91337 | -8.53385 | 1815 ft | 164 kts | 162° |
| 2026-04-25 15:39 | 51.90293 | -8.52767 | 1592 ft | 155 kts | 162° |
| 2026-04-25 15:39 | 51.89311 | -8.52183 | 1423 ft | 150 kts | 163° |
| 2026-04-25 15:39 | 51.88330 | -8.51604 | 1195 ft | 149 kts | 161° |
| 2026-04-25 15:39 | 51.87378 | -8.51038 | 1003 ft | 143 kts | 160° |
| 2026-04-25 15:40 | 51.86439 | -8.50477 | 808 ft | 142 kts | 158° |
| 2026-04-25 15:40 | 51.85812 | -8.50099 | 713 ft | 151 kts | 160° |
| 2026-04-25 15:40 | 51.84505 | -8.49334 | 508 ft | 137 kts | 160° |
| 2026-04-25 15:40 | 51.83782 | -8.48906 | 503 ft | 80 kts | 159° |
| 2026-04-25 15:41 | 51.83441 | -8.48705 | 503 ft | 34 kts | 160° |
| 2026-04-25 15:41 | 51.83313 | -8.48607 | 503 ft | 14 kts | 137° |
| 2026-04-25 15:41 | 51.83270 | -8.48567 | 503 ft | 6 kts | 229° |
| 2026-04-25 15:41 | 51.83295 | -8.48616 | 503 ft | 10 kts | 335° |
| 2026-04-25 15:42 | 51.83387 | -8.48675 | 503 ft | 17 kts | 338° |
| 2026-04-25 15:42 | 51.83509 | -8.48752 | 503 ft | 20 kts | 338° |
| 2026-04-25 15:42 | 51.83643 | -8.48830 | 503 ft | 20 kts | 340° |
| 2026-04-25 15:42 | 51.83778 | -8.48908 | 503 ft | 22 kts | 340° |
| 2026-04-25 15:43 | 51.83929 | -8.48999 | 503 ft | 23 kts | 340° |
| 2026-04-25 15:43 | 51.84081 | -8.49089 | 503 ft | 23 kts | 341° |
| 2026-04-25 15:43 | 51.84227 | -8.49170 | 503 ft | 18 kts | 342° |
| 2026-04-25 15:43 | 51.84300 | -8.49162 | 503 ft | 11 kts | 51° |
| 2026-04-25 15:44 | 51.84333 | -8.49056 | 503 ft | 10 kts | 64° |
| 2026-04-25 15:44 | 51.84380 | -8.48981 | 503 ft | 10 kts | 353° |
| 2026-04-25 15:44 | 51.84446 | -8.49018 | 503 ft | 10 kts | 339° |
| 2026-04-25 15:44 | 51.84511 | -8.49056 | 503 ft | 10 kts | 340° |
| 2026-04-25 15:45 | 51.84581 | -8.49096 | 503 ft | 11 kts | 341° |
| 2026-04-25 15:45 | 51.84662 | -8.49143 | 503 ft | 13 kts | 339° |
| 2026-04-25 15:45 | 51.84749 | -8.49194 | 503 ft | 13 kts | 345° |
| 2026-04-25 15:45 | 51.84807 | -8.49215 | 503 ft | 13 kts | 348° |
| 2026-04-25 15:46 | 51.84910 | -8.49262 | 503 ft | 9 kts | 345° |
| 2026-04-25 15:46 | 51.84953 | -8.49232 | 503 ft | 8 kts | 65° |
| 2026-04-25 15:46 | 51.84971 | -8.49162 | 503 ft | 3 kts | 69° |
| 2026-04-25 15:46 | 51.84974 | -8.49149 | 503 ft | 0 kts | 70° |